createdAt,value
2018-10-18T00:00:32.187Z,13.60
2018-10-18T00:03:00.800Z,13.70
2018-10-18T00:05:29.406Z,13.60
2018-10-18T00:07:58.040Z,13.50
2018-10-18T00:10:26.712Z,13.50
2018-10-18T00:12:55.487Z,13.50
2018-10-18T00:15:24.243Z,13.50
2018-10-18T00:17:53.017Z,13.50
2018-10-18T00:20:21.975Z,13.50
2018-10-18T00:22:50.938Z,13.50
2018-10-18T00:25:19.898Z,13.40
2018-10-18T00:27:49.122Z,13.40
2018-10-18T00:30:18.151Z,13.40
2018-10-18T00:32:46.820Z,13.40
2018-10-18T00:35:15.428Z,13.40
2018-10-18T00:37:44.590Z,13.40
2018-10-18T00:40:13.471Z,13.40
2018-10-18T00:42:42.443Z,13.40
2018-10-18T00:45:11.342Z,13.40
2018-10-18T00:47:40.162Z,13.40
2018-10-18T00:50:10.206Z,13.40
2018-10-18T00:52:39.002Z,13.40
2018-10-18T00:55:08.884Z,13.40
2018-10-18T00:57:37.737Z,13.40
2018-10-18T01:00:07.487Z,13.30
2018-10-18T01:02:36.094Z,13.30
2018-10-18T01:05:04.800Z,13.30
2018-10-18T01:07:33.395Z,13.30
2018-10-18T01:10:02.219Z,13.30
2018-10-18T01:12:30.956Z,13.30
2018-10-18T01:14:59.433Z,13.30
2018-10-18T01:17:28.070Z,13.30
2018-10-18T01:19:56.677Z,13.30
2018-10-18T01:22:25.356Z,13.30
2018-10-18T01:24:54.071Z,13.30
2018-10-18T01:27:23.043Z,13.30
2018-10-18T01:29:52.039Z,13.30
2018-10-18T01:32:20.915Z,13.30
2018-10-18T01:34:49.821Z,13.30
2018-10-18T01:37:18.749Z,13.30
2018-10-18T01:39:48.742Z,13.30
2018-10-18T01:42:17.760Z,13.30
2018-10-18T01:44:47.047Z,13.30
2018-10-18T01:47:15.673Z,13.30
2018-10-18T01:49:44.307Z,13.30
2018-10-18T01:52:12.914Z,13.30
2018-10-18T01:54:41.502Z,13.20
2018-10-18T01:57:10.161Z,13.30
2018-10-18T01:59:38.953Z,13.20
2018-10-18T02:02:07.806Z,13.30
2018-10-18T02:04:36.371Z,13.20
2018-10-18T02:07:05.260Z,13.20
2018-10-18T02:09:33.874Z,13.20
2018-10-18T02:12:02.543Z,13.30
2018-10-18T02:14:31.101Z,13.30
2018-10-18T02:16:59.710Z,13.30
2018-10-18T02:19:28.350Z,13.40
2018-10-18T02:21:56.953Z,13.50
2018-10-18T02:24:25.710Z,13.50
2018-10-18T02:26:54.418Z,13.60
2018-10-18T02:29:23.178Z,13.60
2018-10-18T02:31:52.076Z,13.70
2018-10-18T02:34:20.961Z,13.70
2018-10-18T02:36:49.863Z,13.70
2018-10-18T02:39:18.753Z,13.80
2018-10-18T02:41:47.678Z,13.90
2018-10-18T02:44:16.570Z,13.90
2018-10-18T02:46:45.166Z,13.90
2018-10-18T02:49:13.738Z,13.90
2018-10-18T02:51:42.342Z,13.90
2018-10-18T02:54:10.985Z,13.90
2018-10-18T02:56:39.790Z,13.90
2018-10-18T02:59:08.596Z,13.90
2018-10-18T03:01:37.329Z,14.00
2018-10-18T03:04:06.011Z,14.00
2018-10-18T03:06:34.614Z,14.00
2018-10-18T03:09:03.358Z,14.00
2018-10-18T03:11:31.980Z,14.00
2018-10-18T03:14:00.553Z,14.00
2018-10-18T03:16:29.170Z,14.00
2018-10-18T03:18:57.764Z,14.00
2018-10-18T03:21:26.493Z,14.00
2018-10-18T03:23:55.251Z,13.90
2018-10-18T03:26:23.988Z,13.90
2018-10-18T03:28:52.813Z,13.90
2018-10-18T03:31:21.722Z,14.00
2018-10-18T03:33:50.713Z,13.90
2018-10-18T03:36:19.985Z,13.90
2018-10-18T03:38:48.797Z,13.90
2018-10-18T03:41:17.829Z,13.90
2018-10-18T03:43:46.569Z,13.90
2018-10-18T03:46:15.188Z,13.90
2018-10-18T03:48:43.792Z,13.90
2018-10-18T03:51:12.388Z,13.80
2018-10-18T03:53:41.022Z,13.80
2018-10-18T03:56:09.686Z,13.80
2018-10-18T03:58:39.022Z,13.80
2018-10-18T04:01:07.791Z,13.90
2018-10-18T04:03:36.476Z,13.80
2018-10-18T04:06:05.258Z,13.80
2018-10-18T04:08:33.780Z,13.80
2018-10-18T04:11:02.378Z,13.90
2018-10-18T04:13:30.980Z,13.90
2018-10-18T04:15:59.581Z,13.80
2018-10-18T04:18:29.511Z,13.80
2018-10-18T04:20:58.050Z,13.80
2018-10-18T04:23:32.518Z,13.80
2018-10-18T04:26:01.939Z,13.70
2018-10-18T04:28:31.013Z,13.70
2018-10-18T04:31:00.249Z,13.70
2018-10-18T04:33:28.866Z,13.60
2018-10-18T04:35:57.502Z,13.60
2018-10-18T04:38:26.141Z,13.60
2018-10-18T04:40:54.808Z,13.60
2018-10-18T04:43:23.799Z,13.60
2018-10-18T04:45:52.521Z,13.50
2018-10-18T04:48:21.469Z,13.60
2018-10-18T04:50:50.365Z,13.50
2018-10-18T04:53:19.547Z,13.50
2018-10-18T04:55:48.557Z,13.40
2018-10-18T04:58:17.764Z,13.40
2018-10-18T05:00:46.395Z,13.30
2018-10-18T05:03:15.022Z,13.30
2018-10-18T05:05:51.695Z,13.20
2018-10-18T05:08:21.870Z,13.30
2018-10-18T05:10:50.851Z,13.30
2018-10-18T05:13:20.144Z,13.30
2018-10-18T05:15:49.334Z,13.30
2018-10-18T05:18:18.572Z,13.20
2018-10-18T05:20:47.643Z,13.20
2018-10-18T05:23:16.530Z,13.10
2018-10-18T05:25:46.065Z,13.10
2018-10-18T05:28:14.724Z,13.10
2018-10-18T05:30:43.351Z,13.10
2018-10-18T05:33:12.149Z,13.10
2018-10-18T05:35:40.905Z,13.00
2018-10-18T05:38:09.569Z,13.00
2018-10-18T05:40:38.367Z,13.00
2018-10-18T05:43:07.125Z,13.00
2018-10-18T05:45:37.888Z,12.90
2018-10-18T05:48:06.548Z,12.90
2018-10-18T05:50:35.136Z,12.90
2018-10-18T05:53:03.904Z,12.90
2018-10-18T05:55:32.522Z,12.80
2018-10-18T05:58:01.847Z,12.90
2018-10-18T06:00:30.490Z,12.90
2018-10-18T06:02:59.107Z,12.90
2018-10-18T06:05:27.686Z,12.90
2018-10-18T06:07:56.428Z,12.90
2018-10-18T06:12:41.716Z,13.00
2018-10-18T06:15:10.450Z,12.90
2018-10-18T06:17:40.078Z,13.00
2018-10-18T06:20:08.964Z,13.00
2018-10-18T06:22:37.864Z,13.00
2018-10-18T06:25:07.854Z,12.90
2018-10-18T06:27:36.674Z,12.90
2018-10-18T06:30:06.787Z,13.00
2018-10-18T06:32:35.454Z,12.90
2018-10-18T06:35:04.422Z,13.00
2018-10-18T06:37:33.122Z,13.00
2018-10-18T06:40:01.702Z,13.00
2018-10-18T06:42:30.301Z,13.00
2018-10-18T06:44:58.949Z,13.00
2018-10-18T06:47:27.635Z,13.10
2018-10-18T06:49:56.293Z,13.10
2018-10-18T06:52:25.114Z,13.10
2018-10-18T06:54:53.920Z,13.10
2018-10-18T06:57:22.780Z,13.20
2018-10-18T06:59:51.908Z,13.20
2018-10-18T07:02:20.727Z,13.20
2018-10-18T07:04:49.920Z,13.20
2018-10-18T07:07:18.900Z,13.30
2018-10-18T07:09:48.386Z,13.30
2018-10-18T07:12:17.228Z,13.30
2018-10-18T07:14:45.831Z,13.40
2018-10-18T07:17:14.475Z,13.50
2018-10-18T07:19:43.128Z,13.50
2018-10-18T07:22:11.876Z,13.50
2018-10-18T07:24:40.574Z,13.50
2018-10-18T07:27:09.583Z,13.60
2018-10-18T07:29:38.315Z,13.70
2018-10-18T07:32:07.170Z,13.80
2018-10-18T07:34:35.799Z,13.90
2018-10-18T07:37:04.675Z,14.00
2018-10-18T07:39:33.275Z,14.10
2018-10-18T07:42:01.974Z,14.10
2018-10-18T07:44:30.520Z,14.20
2018-10-18T07:46:59.188Z,14.30
2018-10-18T07:49:27.793Z,14.30
2018-10-18T07:51:56.575Z,14.40
2018-10-18T07:54:25.300Z,14.50
2018-10-18T07:56:54.174Z,14.60
2018-10-18T07:59:23.221Z,14.70
2018-10-18T08:01:52.148Z,14.80
2018-10-18T08:04:21.038Z,14.90
2018-10-18T08:06:50.099Z,15.00
2018-10-18T08:09:19.878Z,15.10
2018-10-18T08:11:49.202Z,15.10
2018-10-18T08:14:18.493Z,15.20
2018-10-18T08:16:47.416Z,15.30
2018-10-18T08:19:16.072Z,15.40
2018-10-18T08:21:44.610Z,15.50
2018-10-18T08:24:13.230Z,15.60
2018-10-18T08:26:41.925Z,15.70
2018-10-18T08:29:10.815Z,15.80
2018-10-18T08:31:39.691Z,15.90
2018-10-18T08:34:08.486Z,16.00
2018-10-18T08:36:37.213Z,16.00
2018-10-18T08:39:11.108Z,16.00
2018-10-18T08:41:39.848Z,16.00
2018-10-18T08:44:08.708Z,16.00
2018-10-18T08:46:37.402Z,16.10
2018-10-18T08:49:06.214Z,16.20
2018-10-18T08:51:34.783Z,16.30
2018-10-18T08:54:03.416Z,16.40
2018-10-18T08:56:32.071Z,16.50
2018-10-18T08:59:00.712Z,16.50
2018-10-18T09:01:29.321Z,16.50
2018-10-18T09:03:57.932Z,16.40
2018-10-18T09:06:26.587Z,16.40
2018-10-18T09:08:55.380Z,16.40
2018-10-18T09:11:24.351Z,16.40
2018-10-18T09:13:53.255Z,16.40
2018-10-18T09:16:22.377Z,16.40
2018-10-18T09:18:51.619Z,16.40
2018-10-18T09:21:20.675Z,16.40
2018-10-18T09:23:49.715Z,16.50
2018-10-18T09:26:18.614Z,16.50
2018-10-18T09:28:47.738Z,16.50
2018-10-18T09:31:16.562Z,16.50
2018-10-18T09:33:45.148Z,16.50
2018-10-18T09:36:13.763Z,16.50
2018-10-18T09:38:42.454Z,16.60
2018-10-18T09:41:11.247Z,16.60
2018-10-18T09:43:40.064Z,16.50
2018-10-18T09:46:08.884Z,16.40
2018-10-18T09:48:37.659Z,16.40
2018-10-18T09:51:06.567Z,16.50
2018-10-18T09:53:35.213Z,16.80
2018-10-18T09:56:03.863Z,17.10
2018-10-18T09:58:32.519Z,17.30
2018-10-18T10:01:06.599Z,17.60
2018-10-18T10:03:35.174Z,17.70
2018-10-18T10:06:03.799Z,17.80
2018-10-18T10:08:32.404Z,18.00
2018-10-18T10:11:00.998Z,18.30
2018-10-18T10:13:29.714Z,18.60
2018-10-18T10:15:58.266Z,19.00
2018-10-18T10:18:26.943Z,19.00
2018-10-18T10:20:55.635Z,19.00
2018-10-18T10:23:24.449Z,19.30
2018-10-18T10:25:53.956Z,19.40
2018-10-18T10:28:23.178Z,19.60
2018-10-18T10:30:52.359Z,19.70
2018-10-18T10:33:21.737Z,20.00
2018-10-18T10:35:51.048Z,20.00
2018-10-18T10:38:20.410Z,20.10
2018-10-18T10:40:49.613Z,20.10
2018-10-18T10:43:19.517Z,20.00
2018-10-18T10:45:50.360Z,19.70
2018-10-18T10:48:19.600Z,19.50
2018-10-18T10:50:50.164Z,19.70
2018-10-18T10:53:19.366Z,19.80
2018-10-18T10:55:48.765Z,19.80
2018-10-18T10:58:17.926Z,20.00
2018-10-18T11:01:18.939Z,20.10
2018-10-18T11:03:48.430Z,20.20
2018-10-18T11:06:17.457Z,20.60
2018-10-18T11:08:46.290Z,20.90
2018-10-18T11:11:15.780Z,21.20
2018-10-18T11:13:44.470Z,21.10
2018-10-18T11:16:13.144Z,21.10
2018-10-18T11:18:42.125Z,20.70
2018-10-18T11:21:12.491Z,20.20
2018-10-18T11:23:41.199Z,19.90
2018-10-18T11:26:10.042Z,19.60
2018-10-18T11:28:38.841Z,19.70
2018-10-18T11:31:07.619Z,19.90
2018-10-18T11:33:36.257Z,20.30
2018-10-18T11:36:04.978Z,20.40
2018-10-18T11:38:33.561Z,20.20
2018-10-18T11:41:02.183Z,19.90
2018-10-18T11:43:30.859Z,19.60
2018-10-18T11:45:59.473Z,19.50
2018-10-18T11:48:28.257Z,19.60
2018-10-18T11:50:56.899Z,19.90
2018-10-18T11:53:25.669Z,20.00
2018-10-18T11:55:54.524Z,19.90
2018-10-18T11:58:23.336Z,20.00
2018-10-18T12:00:52.258Z,20.00
2018-10-18T12:03:21.267Z,20.10
2018-10-18T12:05:50.123Z,20.00
2018-10-18T12:08:19.019Z,19.80
2018-10-18T12:10:47.936Z,19.70
2018-10-18T12:13:16.723Z,19.40
2018-10-18T12:15:45.333Z,19.30
2018-10-18T12:18:13.946Z,19.40
2018-10-18T12:20:42.611Z,19.10
2018-10-18T12:23:11.523Z,19.00
2018-10-18T12:25:40.144Z,19.50
2018-10-18T12:28:08.983Z,20.10
2018-10-18T12:30:37.649Z,20.70
2018-10-18T12:33:06.281Z,21.30
2018-10-18T12:35:34.897Z,21.90
2018-10-18T12:38:03.514Z,22.50
2018-10-18T12:40:32.175Z,23.00
2018-10-18T12:43:00.798Z,22.80
2018-10-18T12:45:29.429Z,22.80
2018-10-18T12:47:58.019Z,22.50
2018-10-18T12:50:26.702Z,22.00
2018-10-18T12:52:55.391Z,21.60
2018-10-18T12:55:24.234Z,21.20
2018-10-18T12:57:53.023Z,20.70
2018-10-18T13:00:21.903Z,20.20
2018-10-18T13:02:50.722Z,19.80
2018-10-18T13:05:20.407Z,19.50
2018-10-18T13:07:49.359Z,19.40
2018-10-18T13:10:18.153Z,19.30
2018-10-18T13:12:46.928Z,19.20
2018-10-18T13:15:15.552Z,19.30
2018-10-18T13:17:44.221Z,19.60
2018-10-18T13:20:12.914Z,19.80
2018-10-18T13:22:41.684Z,20.30
2018-10-18T13:25:11.311Z,20.90
2018-10-18T13:27:40.248Z,21.10
2018-10-18T13:30:10.668Z,21.70
2018-10-18T13:32:40.014Z,21.80
2018-10-18T13:35:09.402Z,22.20
2018-10-18T13:37:38.322Z,22.10
2018-10-18T13:40:08.208Z,21.80
2018-10-18T13:42:36.974Z,21.40
2018-10-18T13:45:06.453Z,21.20
2018-10-18T13:47:35.330Z,21.00
2018-10-18T13:50:04.194Z,20.60
2018-10-18T13:52:32.955Z,20.90
2018-10-18T13:55:01.590Z,21.10
2018-10-18T13:57:30.348Z,21.20
2018-10-18T14:00:28.851Z,21.70
2018-10-18T14:02:57.464Z,21.80
2018-10-18T14:05:26.838Z,21.80
2018-10-18T14:07:56.274Z,21.40
2018-10-18T14:10:26.187Z,21.20
2018-10-18T14:12:55.240Z,20.70
2018-10-18T14:15:24.306Z,20.30
2018-10-18T14:17:53.366Z,19.80
2018-10-18T14:20:22.371Z,19.60
2018-10-18T14:22:51.439Z,19.50
2018-10-18T14:25:20.611Z,19.30
2018-10-18T14:27:49.711Z,19.50
2018-10-18T14:30:18.713Z,19.80
2018-10-18T14:32:47.543Z,20.10
2018-10-18T14:35:16.485Z,20.40
2018-10-18T14:37:45.073Z,20.70
2018-10-18T14:40:13.910Z,20.90
2018-10-18T14:42:42.722Z,21.00
2018-10-18T14:45:11.455Z,21.10
2018-10-18T14:47:40.267Z,21.00
2018-10-18T14:50:11.359Z,20.70
2018-10-18T14:52:39.922Z,20.50
2018-10-18T14:55:08.677Z,20.10
2018-10-18T14:57:37.670Z,19.90
2018-10-18T15:00:08.398Z,19.90
2018-10-18T15:02:37.073Z,20.10
2018-10-18T15:05:06.866Z,20.10
2018-10-18T15:07:36.822Z,20.20
2018-10-18T15:10:07.078Z,20.20
2018-10-18T15:12:35.763Z,20.00
2018-10-18T15:15:04.470Z,20.00
2018-10-18T15:17:33.084Z,20.00
2018-10-18T15:20:01.749Z,19.90
2018-10-18T15:22:30.384Z,19.80
2018-10-18T15:24:59.132Z,19.60
2018-10-18T15:27:27.861Z,19.30
2018-10-18T15:29:56.630Z,19.10
2018-10-18T15:32:25.570Z,18.90
2018-10-18T15:34:54.358Z,18.70
2018-10-18T15:37:23.080Z,18.40
2018-10-18T15:39:51.965Z,18.20
2018-10-18T15:42:20.946Z,18.10
2018-10-18T15:44:50.060Z,17.90
2018-10-18T15:47:19.096Z,17.80
2018-10-18T15:49:48.111Z,17.70
2018-10-18T15:52:16.904Z,17.50
2018-10-18T15:54:45.570Z,17.30
2018-10-18T15:57:14.519Z,17.30
2018-10-18T15:59:43.118Z,17.20
2018-10-18T16:02:11.795Z,17.20
2018-10-18T16:04:42.036Z,17.20
2018-10-18T16:07:10.795Z,17.10
2018-10-18T16:09:39.704Z,17.00
2018-10-18T16:12:08.543Z,16.90
2018-10-18T16:14:37.209Z,16.80
2018-10-18T16:17:06.360Z,16.80
2018-10-18T16:19:34.970Z,16.70
2018-10-18T16:22:03.600Z,16.70
2018-10-18T16:24:32.238Z,16.70
2018-10-18T16:27:00.887Z,16.60
2018-10-18T16:29:29.619Z,16.60
2018-10-18T16:31:58.492Z,16.50
2018-10-18T16:34:27.141Z,16.50
2018-10-18T16:36:55.978Z,16.50
2018-10-18T16:39:24.763Z,16.40
2018-10-18T16:41:53.761Z,16.40
2018-10-18T16:44:22.462Z,16.30
2018-10-18T16:46:51.417Z,16.40
2018-10-18T16:49:20.365Z,16.40
2018-10-18T16:51:49.181Z,16.30
2018-10-18T16:54:18.860Z,16.30
2018-10-18T16:56:47.516Z,16.30
2018-10-18T16:59:16.217Z,16.20
2018-10-18T17:01:44.848Z,16.20
2018-10-18T17:04:13.642Z,16.10
2018-10-18T17:06:42.205Z,16.10
2018-10-18T17:09:12.241Z,16.10
2018-10-18T17:11:41.055Z,16.10
2018-10-18T17:14:09.833Z,16.00
2018-10-18T17:16:38.542Z,16.00
2018-10-18T17:19:07.286Z,15.90
2018-10-18T17:21:35.886Z,15.90
2018-10-18T17:24:04.869Z,15.80
2018-10-18T17:26:33.529Z,15.80
2018-10-18T17:29:02.134Z,15.70
2018-10-18T17:31:30.730Z,15.70
2018-10-18T17:33:59.417Z,15.70
2018-10-18T17:36:28.030Z,15.60
2018-10-18T17:38:56.714Z,15.60
2018-10-18T17:41:25.390Z,15.60
2018-10-18T17:43:54.106Z,15.60
2018-10-18T17:46:22.893Z,15.60
2018-10-18T17:48:51.826Z,15.50
2018-10-18T17:51:20.667Z,15.40
2018-10-18T17:53:49.577Z,15.40
2018-10-18T17:56:18.622Z,15.40
2018-10-18T17:58:47.333Z,15.40
2018-10-18T18:01:16.017Z,15.30
2018-10-18T18:03:44.647Z,15.30
2018-10-18T18:06:13.378Z,15.30
2018-10-18T18:08:41.891Z,15.30
2018-10-18T18:11:10.705Z,15.20
2018-10-18T18:13:39.784Z,15.20
2018-10-18T18:16:08.701Z,15.20
2018-10-18T18:18:37.630Z,15.10
2018-10-18T18:21:06.231Z,15.10
2018-10-18T18:23:34.831Z,15.10
2018-10-18T18:26:03.534Z,15.00
2018-10-18T18:28:32.182Z,15.00
2018-10-18T18:31:00.849Z,15.00
2018-10-18T18:33:29.449Z,15.00
2018-10-18T18:35:58.090Z,15.00
2018-10-18T18:38:26.679Z,15.00
2018-10-18T18:40:55.303Z,15.00
2018-10-18T18:43:24.120Z,15.00
2018-10-18T18:45:52.858Z,14.90
2018-10-18T18:48:21.816Z,14.90
2018-10-18T18:50:50.585Z,14.90
2018-10-18T18:53:19.652Z,14.90
2018-10-18T18:55:48.442Z,14.90
2018-10-18T18:58:17.193Z,14.90
2018-10-18T19:00:45.833Z,14.90
2018-10-18T19:03:14.501Z,14.90
2018-10-18T19:05:43.474Z,14.90
2018-10-18T19:08:12.246Z,14.90
2018-10-18T19:10:40.966Z,14.90
2018-10-18T19:13:09.851Z,14.80
2018-10-18T19:15:38.692Z,14.80
2018-10-18T19:18:07.539Z,14.80
2018-10-18T19:20:36.151Z,14.80
2018-10-18T19:23:04.894Z,14.70
2018-10-18T19:25:33.542Z,14.70
2018-10-18T19:28:02.212Z,14.60
2018-10-18T19:30:30.810Z,14.50
2018-10-18T19:32:59.418Z,14.50
2018-10-18T19:35:27.997Z,14.50
2018-10-18T19:37:56.662Z,14.50
2018-10-18T19:40:25.387Z,14.50
2018-10-18T19:42:54.163Z,14.40
2018-10-18T19:45:23.045Z,14.40
2018-10-18T19:47:52.000Z,14.40
2018-10-18T19:50:21.122Z,14.40
2018-10-18T19:52:50.225Z,14.30
2018-10-18T19:55:19.453Z,14.30
2018-10-18T19:57:48.404Z,14.30
2018-10-18T20:00:17.241Z,14.20
2018-10-18T20:02:45.870Z,14.20
2018-10-18T20:05:14.507Z,14.20
2018-10-18T20:07:43.157Z,14.10
2018-10-18T20:10:11.739Z,14.20
2018-10-18T20:12:40.500Z,14.20
2018-10-18T20:15:09.494Z,14.10
2018-10-18T20:17:38.120Z,14.10
2018-10-18T20:20:07.921Z,14.10
2018-10-18T20:22:36.600Z,14.10
2018-10-18T20:25:06.157Z,14.10
2018-10-18T20:27:34.604Z,14.10
2018-10-18T20:30:03.322Z,14.00
2018-10-18T20:32:31.935Z,14.10
2018-10-18T20:35:00.529Z,14.00
2018-10-18T20:37:29.124Z,14.00
2018-10-18T20:39:57.703Z,14.00
2018-10-18T20:42:26.305Z,14.00
2018-10-18T20:44:55.071Z,14.00
2018-10-18T20:47:23.985Z,13.90
2018-10-18T20:49:52.595Z,13.90
2018-10-18T20:52:21.679Z,13.90
2018-10-18T20:54:50.601Z,13.90
2018-10-18T20:57:19.492Z,13.90
2018-10-18T20:59:48.498Z,13.80
2018-10-18T21:02:20.148Z,13.70
2018-10-18T21:04:49.155Z,13.70
2018-10-18T21:07:18.086Z,13.70
2018-10-18T21:09:46.905Z,13.60
2018-10-18T21:12:15.601Z,13.60
2018-10-18T21:14:44.174Z,13.60
2018-10-18T21:17:12.860Z,13.60
2018-10-18T21:19:41.518Z,13.70
2018-10-18T21:22:10.305Z,13.60
2018-10-18T21:24:39.028Z,13.60
2018-10-18T21:27:07.918Z,13.50
2018-10-18T21:29:36.482Z,13.50
2018-10-18T21:32:05.148Z,13.40
2018-10-18T21:34:33.775Z,13.40
2018-10-18T21:37:02.371Z,13.40
2018-10-18T21:39:33.484Z,13.30
2018-10-18T21:42:03.022Z,13.30
2018-10-18T21:44:33.164Z,13.30
2018-10-18T21:47:02.148Z,13.30
2018-10-18T21:49:31.344Z,13.30
2018-10-18T21:51:59.981Z,13.30
2018-10-18T21:54:28.715Z,13.30
2018-10-18T21:56:57.697Z,13.20
2018-10-18T21:59:26.475Z,13.20
2018-10-18T22:01:55.200Z,13.20
2018-10-18T22:04:23.844Z,13.10
2018-10-18T22:06:52.670Z,13.10
2018-10-18T22:09:21.595Z,13.10
2018-10-18T22:11:50.662Z,13.10
2018-10-18T22:14:19.649Z,13.00
2018-10-18T22:16:48.607Z,13.00
2018-10-18T22:19:17.456Z,12.90
2018-10-18T22:21:46.057Z,12.90
2018-10-18T22:24:14.685Z,12.80
2018-10-18T22:26:43.387Z,12.80
2018-10-18T22:29:12.052Z,12.80
2018-10-18T22:31:40.707Z,12.80
2018-10-18T22:34:09.485Z,12.80
2018-10-18T22:36:38.170Z,12.70
2018-10-18T22:39:09.875Z,12.70
2018-10-18T22:41:38.598Z,12.70
2018-10-18T22:44:07.804Z,12.70
2018-10-18T22:46:36.541Z,12.70
2018-10-18T22:49:05.255Z,12.60
2018-10-18T22:51:33.891Z,12.60
2018-10-18T22:54:02.481Z,12.50
2018-10-18T22:56:31.105Z,12.50
2018-10-18T22:58:59.700Z,12.50
2018-10-18T23:01:28.345Z,12.50
2018-10-18T23:03:56.990Z,12.50
2018-10-18T23:06:25.715Z,12.40
2018-10-18T23:08:54.567Z,12.40
2018-10-18T23:11:23.332Z,12.40
2018-10-18T23:13:52.262Z,12.30
2018-10-18T23:16:21.408Z,12.20
2018-10-18T23:18:50.498Z,12.20
2018-10-18T23:21:19.478Z,12.20
2018-10-18T23:23:48.368Z,12.10
2018-10-18T23:26:18.089Z,12.10
2018-10-18T23:28:47.664Z,12.10
2018-10-18T23:31:16.439Z,12.00
2018-10-18T23:33:45.071Z,12.00
2018-10-18T23:36:13.641Z,12.00
2018-10-18T23:38:42.282Z,12.00
2018-10-18T23:41:11.047Z,12.00
2018-10-18T23:43:39.832Z,12.00
2018-10-18T23:46:08.573Z,12.00
2018-10-18T23:48:37.267Z,12.00
2018-10-18T23:51:05.973Z,12.00
2018-10-18T23:53:34.591Z,12.00
2018-10-18T23:56:03.402Z,12.00
2018-10-18T23:58:32.055Z,11.90
